Downstream station:
SHEF ID: TBPT2 Truscott Brine Lake
STATION TYPE: brine storage project
Flood Pool: Bottom = 1499.00, Top = 1502.00
PRECIP PRECIP(A) ELEVATION AIR-TEMP WIND-DIRWIND-SPEED REL-HUMID SOLAR-RAD VOLTAGE BAT-LOAD
in in ft F deg mph % W/m2 volt volt
Ccp-Rev Ccp-Rev Ccp-Rev Ccp-Rev Ccp-Rev Ccp-Rev Ccp-Rev Ccp-Rev Ccp-Rev Ccp-Rev
(US/Central)
03/18 00:00 0.00 ---- 1458.20 45.28 329.60 9.80 53.58 0.00 12.76 12.46
03/18 01:00 0.00 ---- 1458.20 42.98 314.90 9.10 58.40 0.00 12.74 12.34
03/18 02:00 0.00 ---- 1458.20 41.34 311.90 10.80 62.40 0.00 12.73 12.31
03/18 03:00 0.00 ---- 1458.20 41.27 298.60 13.10 63.00 0.00 12.71 12.30
03/18 04:00 0.00 ---- 1458.20 41.49 309.90 13.80 62.40 0.00 12.69 12.28
03/18 05:00 0.00 ---- 1458.20 40.33 317.60 12.40 65.78 0.00 12.67 12.25
03/18 06:00 0.00 ---- 1458.20 40.05 327.30 11.10 66.72 0.00 12.64 12.23
03/18 07:00 0.00 ---- 1458.20 39.47 317.30 10.80 68.57 0.00 12.62 12.21
03/18 08:00 0.00 ---- 1458.20 39.20 346.90 13.70 69.38 0.00 12.60 12.19
03/18 09:00 0.00 ---- 1458.20 40.37 354.80 14.70 66.80 114.70 12.74 12.20
03/18 10:00 0.00 ---- 1458.20 43.95 350.30 19.60 55.77 344.20 13.56 12.48
03/18 11:00 0.00 ---- 1458.20 46.65 354.10 20.20 47.73 567.00 13.53 13.07
03/18 12:00 0.00 ---- 1458.20 48.72 353.60 19.70 43.78 751.60 13.49 13.00
03/18 13:00 0.00 ---- 1458.20 51.35 351.60 17.30 40.11 869.30 13.66 13.39
03/18 14:00 0.00 ---- 1458.20 54.46 348.50 16.20 35.30 953.80 13.64 13.68
03/18 15:00 0.00 ---- 1458.20 56.55 354.70 17.20 32.67 938.80 13.60 13.65
03/18 16:00 0.00 ---- 1458.20 57.92 348.80 16.30 31.34 858.00 13.62 13.78
03/18 17:00 0.00 ---- 1458.20 58.53 356.90 16.50 28.80 710.00 14.33 13.59
03/18 18:00 0.00 ---- 1458.20 58.60 0.30 16.20 29.24 509.40 13.60 13.26
03/18 19:00 0.00 ---- 1458.20 56.86 8.10 15.40 32.93 273.60 13.78 13.16
03/18 20:00 0.00 ---- 1458.20 53.53 15.20 12.80 38.76 49.50 13.03 13.14
03/18 21:00 0.00 ---- 1458.20 49.21 10.30 7.00 47.01 0.00 12.85 12.47
03/18 22:00 0.00 ---- 1458.20 45.73 12.80 5.40 54.30 0.00 12.82 12.40
03/18 23:00 0.00 ---- 1458.20 44.19 7.50 3.20 58.93 0.00 12.80 12.36